createdAt,value
2018-06-04T00:01:45.349Z,99.90
2018-06-04T00:04:15.180Z,99.90
2018-06-04T00:06:44.213Z,99.90
2018-06-04T00:11:44.227Z,99.90
2018-06-04T00:14:13.283Z,99.90
2018-06-04T00:16:42.316Z,99.90
2018-06-04T00:19:11.761Z,99.90
2018-06-04T00:21:40.785Z,99.90
2018-06-04T00:24:09.896Z,99.90
2018-06-04T00:26:38.942Z,99.90
2018-06-04T00:29:07.953Z,99.90
2018-06-04T00:31:37.289Z,99.90
2018-06-04T00:34:06.385Z,99.90
2018-06-04T00:36:35.581Z,99.90
2018-06-04T00:39:06.988Z,99.90
2018-06-04T00:41:36.442Z,99.90
2018-06-04T00:44:05.426Z,99.90
2018-06-04T00:46:34.994Z,99.90
2018-06-04T00:49:04.908Z,99.90
2018-06-04T00:51:34.772Z,99.90
2018-06-04T00:54:03.787Z,99.90
2018-06-04T00:59:02.403Z,99.90
2018-06-04T01:01:31.532Z,99.90
2018-06-04T01:04:00.820Z,99.90
2018-06-04T01:06:31.340Z,99.90
2018-06-04T01:09:08.498Z,99.90
2018-06-04T01:11:38.456Z,99.90
2018-06-04T01:14:07.435Z,99.90
2018-06-04T01:16:37.446Z,99.90
2018-06-04T01:19:06.580Z,99.90
2018-06-04T01:21:35.657Z,99.90
2018-06-04T01:24:04.668Z,99.90
2018-06-04T01:26:33.666Z,99.90
2018-06-04T01:29:03.436Z,99.90
2018-06-04T01:31:32.456Z,99.90
2018-06-04T01:34:02.291Z,99.90
2018-06-04T01:36:31.286Z,99.90
2018-06-04T01:39:00.311Z,99.90
2018-06-04T01:41:29.717Z,99.90
2018-06-04T01:43:58.721Z,99.90
2018-06-04T01:46:27.760Z,99.90
2018-06-04T01:48:57.640Z,99.90
2018-06-04T01:51:26.675Z,99.90
2018-06-04T01:53:55.722Z,99.90
2018-06-04T01:56:24.883Z,99.90
2018-06-04T01:58:54.752Z,99.90
2018-06-04T02:01:23.825Z,99.90
2018-06-04T02:03:52.778Z,99.90
2018-06-04T02:06:21.938Z,99.90
2018-06-04T02:08:50.929Z,99.90
2018-06-04T02:11:19.997Z,99.90
2018-06-04T02:13:48.989Z,99.90
2018-06-04T02:16:18.940Z,99.90
2018-06-04T02:18:51.683Z,99.90
2018-06-04T02:21:20.719Z,99.90
2018-06-04T02:23:49.695Z,99.90
2018-06-04T02:26:19.174Z,99.90
2018-06-04T02:28:48.959Z,99.90
2018-06-04T02:31:19.157Z,99.90
2018-06-04T02:33:51.879Z,99.90
2018-06-04T02:36:20.872Z,99.90
2018-06-04T02:38:50.701Z,99.90
2018-06-04T02:41:19.645Z,99.90
2018-06-04T02:43:48.721Z,99.90
2018-06-04T02:46:18.515Z,99.90
2018-06-04T02:48:47.590Z,99.90
2018-06-04T02:51:17.301Z,99.90
2018-06-04T02:53:46.325Z,99.90
2018-06-04T02:56:15.338Z,99.90
2018-06-04T02:58:44.397Z,99.90
2018-06-04T03:01:13.475Z,99.90
2018-06-04T03:03:42.441Z,99.90
2018-06-04T03:06:14.315Z,99.90
2018-06-04T03:08:43.294Z,99.90
2018-06-04T03:16:09.589Z,99.90
2018-06-04T03:18:39.472Z,99.90
2018-06-04T03:21:08.650Z,99.90
2018-06-04T03:23:37.626Z,99.90
2018-06-04T03:26:06.659Z,99.90
2018-06-04T03:28:35.727Z,99.90
2018-06-04T03:31:04.790Z,99.90
2018-06-04T03:33:33.781Z,99.90
2018-06-04T03:36:02.835Z,99.90
2018-06-04T03:38:31.900Z,99.90
2018-06-04T03:41:00.929Z,99.90
2018-06-04T03:43:30.030Z,99.90
2018-06-04T03:45:58.984Z,99.90
2018-06-04T03:48:28.018Z,99.90
2018-06-04T03:50:57.055Z,99.90
2018-06-04T03:53:26.129Z,99.90
2018-06-04T03:55:55.108Z,99.90
2018-06-04T03:58:24.961Z,99.90
2018-06-04T04:00:55.205Z,99.90
2018-06-04T04:03:25.048Z,99.90
2018-06-04T04:05:54.064Z,99.90
2018-06-04T04:08:23.120Z,99.90
2018-06-04T04:10:52.871Z,99.90
2018-06-04T04:13:21.872Z,99.90
2018-06-04T04:15:53.830Z,99.90
2018-06-04T04:18:22.927Z,99.90
2018-06-04T04:20:52.997Z,99.90
2018-06-04T04:23:22.026Z,99.90
2018-06-04T04:25:51.068Z,99.90
2018-06-04T04:28:20.086Z,99.90
2018-06-04T04:30:49.141Z,99.90
2018-06-04T04:33:18.093Z,99.90
2018-06-04T04:35:47.936Z,99.90
2018-06-04T04:38:16.967Z,99.90
2018-06-04T04:40:46.173Z,99.90
2018-06-04T04:43:15.538Z,99.90
2018-06-04T04:45:44.588Z,99.90
2018-06-04T04:48:13.577Z,99.90
2018-06-04T04:50:43.397Z,99.90
2018-06-04T04:53:13.619Z,99.90
2018-06-04T04:55:43.811Z,99.90
2018-06-04T04:58:13.685Z,99.90
2018-06-04T05:00:42.781Z,99.90
2018-06-04T05:03:11.848Z,99.90
2018-06-04T05:05:41.323Z,99.90
2018-06-04T05:08:11.738Z,99.90
2018-06-04T05:10:41.278Z,99.90
2018-06-04T05:13:10.342Z,99.90
2018-06-04T05:15:39.328Z,99.90
2018-06-04T05:18:09.678Z,99.90
2018-06-04T05:20:38.838Z,99.90
2018-06-04T05:23:07.883Z,99.90
2018-06-04T05:25:36.896Z,99.90
2018-06-04T05:28:07.078Z,99.90
2018-06-04T05:30:37.275Z,99.90
2018-06-04T05:33:06.262Z,99.90
2018-06-04T05:35:35.308Z,99.90
2018-06-04T05:38:05.504Z,99.90
2018-06-04T05:40:36.552Z,99.90
2018-06-04T05:43:05.735Z,99.90
2018-06-04T05:45:34.824Z,99.90
2018-06-04T05:48:04.713Z,99.90
2018-06-04T05:50:33.786Z,99.90
2018-06-04T05:53:02.913Z,99.90
2018-06-04T05:55:31.942Z,99.90
2018-06-04T05:58:01.824Z,99.90
2018-06-04T06:00:30.830Z,99.90
2018-06-04T06:02:59.860Z,99.90
2018-06-04T06:05:28.947Z,99.90
2018-06-04T06:07:57.965Z,99.90
2018-06-04T06:10:27.038Z,99.90
2018-06-04T06:12:57.280Z,99.90
2018-06-04T06:15:27.134Z,99.90
2018-06-04T06:17:56.152Z,99.90
2018-06-04T06:20:25.741Z,99.90
2018-06-04T06:22:55.615Z,99.90
2018-06-04T06:25:24.684Z,99.90
2018-06-04T06:27:54.144Z,99.90
2018-06-04T06:30:23.219Z,99.90
2018-06-04T06:32:52.176Z,99.90
2018-06-04T06:35:21.207Z,99.90
2018-06-04T06:37:51.136Z,99.90
2018-06-04T06:42:48.960Z,99.90
2018-06-04T06:45:18.089Z,99.90
2018-06-04T06:47:47.149Z,99.90
2018-06-04T06:50:16.185Z,99.90
2018-06-04T06:52:45.191Z,99.90
2018-06-04T06:55:14.208Z,99.90
2018-06-04T06:57:43.260Z,99.90
2018-06-04T07:00:12.262Z,99.90
2018-06-04T07:02:41.321Z,99.90
2018-06-04T07:05:10.406Z,99.90
2018-06-04T07:07:39.592Z,99.90
2018-06-04T07:10:08.625Z,99.90
2018-06-04T07:12:37.656Z,99.90
2018-06-04T07:15:06.999Z,99.90
2018-06-04T07:17:37.279Z,99.90
2018-06-04T07:20:06.414Z,99.90
2018-06-04T07:22:36.615Z,99.90
2018-06-04T07:25:07.713Z,99.90
2018-06-04T07:27:36.735Z,99.90
2018-06-04T07:30:10.033Z,99.90
2018-06-04T07:32:39.087Z,99.90
2018-06-04T07:35:12.115Z,99.90
2018-06-04T07:37:41.145Z,99.90
2018-06-04T07:40:10.850Z,99.90
2018-06-04T07:42:39.873Z,99.90
2018-06-04T07:45:09.260Z,99.90
2018-06-04T07:47:38.307Z,99.90
2018-06-04T07:50:08.532Z,99.90
2018-06-04T07:52:38.559Z,99.90
2018-06-04T07:55:07.554Z,99.90
2018-06-04T07:57:36.563Z,99.90
2018-06-04T08:00:07.022Z,99.90
2018-06-04T08:02:36.411Z,99.90
2018-06-04T08:05:06.103Z,99.90
2018-06-04T08:07:38.976Z,99.90
2018-06-04T08:10:09.221Z,99.90
2018-06-04T08:12:38.279Z,99.90
2018-06-04T08:15:08.319Z,99.90
2018-06-04T08:17:37.973Z,99.90
2018-06-04T08:20:06.966Z,99.90
2018-06-04T08:22:37.236Z,99.90
2018-06-04T08:25:06.254Z,99.90
2018-06-04T08:27:36.154Z,99.90
2018-06-04T08:30:05.149Z,99.90
2018-06-04T08:32:34.185Z,99.90
2018-06-04T08:35:03.250Z,99.90
2018-06-04T08:37:32.274Z,99.90
2018-06-04T08:40:01.283Z,99.90
2018-06-04T08:42:31.488Z,99.90
2018-06-04T08:45:00.534Z,99.90
2018-06-04T08:47:29.618Z,99.90
2018-06-04T08:49:59.473Z,99.90
2018-06-04T08:52:28.486Z,99.90
2018-06-04T08:54:58.689Z,99.90
2018-06-04T08:57:27.742Z,99.90
2018-06-04T08:59:56.895Z,99.90
2018-06-04T09:02:27.114Z,99.90
2018-06-04T09:04:56.176Z,99.90
2018-06-04T09:07:25.261Z,99.90
2018-06-04T09:09:56.531Z,99.90
2018-06-04T09:12:26.451Z,99.90
2018-06-04T09:14:55.815Z,99.90
2018-06-04T09:17:26.060Z,99.90
2018-06-04T09:19:55.105Z,99.90
2018-06-04T09:24:53.458Z,99.90
2018-06-04T09:27:22.851Z,99.90
2018-06-04T09:29:51.924Z,99.90
2018-06-04T09:32:22.180Z,99.90
2018-06-04T09:34:51.855Z,99.90
2018-06-04T09:37:20.839Z,99.90
2018-06-04T09:39:49.887Z,99.90
2018-06-04T09:42:19.579Z,99.90
2018-06-04T09:44:49.396Z,99.90
2018-06-04T09:47:19.253Z,99.90
2018-06-04T09:49:48.367Z,99.90
2018-06-04T09:52:17.522Z,99.90
2018-06-04T09:54:47.048Z,99.90
2018-06-04T09:57:16.052Z,99.90
2018-06-04T09:59:45.188Z,99.90
2018-06-04T10:02:16.688Z,99.90
2018-06-04T10:04:45.765Z,99.90
2018-06-04T10:07:14.739Z,99.90
2018-06-04T10:09:44.991Z,99.90
2018-06-04T10:12:14.042Z,99.90
2018-06-04T10:14:43.041Z,99.90
2018-06-04T10:17:12.056Z,99.90
2018-06-04T10:19:42.325Z,99.90
2018-06-04T10:22:11.377Z,99.90
2018-06-04T10:24:40.376Z,99.90
2018-06-04T10:27:09.460Z,99.90
2018-06-04T10:29:39.323Z,99.90
2018-06-04T10:32:08.329Z,99.90
2018-06-04T10:34:37.369Z,99.90
2018-06-04T10:37:06.463Z,99.90
2018-06-04T10:39:36.645Z,99.90
2018-06-04T10:42:07.041Z,99.90
2018-06-04T10:44:37.371Z,99.90
2018-06-04T10:47:07.361Z,99.90
2018-06-04T10:49:36.384Z,99.90
2018-06-04T10:52:06.540Z,99.90
2018-06-04T10:54:35.528Z,99.90
2018-06-04T10:57:04.739Z,99.90
2018-06-04T10:59:33.776Z,99.90
2018-06-04T11:02:05.369Z,99.90
2018-06-04T11:04:36.006Z,99.90
2018-06-04T11:07:05.033Z,99.90
2018-06-04T11:09:35.208Z,99.90
2018-06-04T11:12:05.112Z,99.90
2018-06-04T11:14:34.037Z,99.90
2018-06-04T11:17:03.037Z,99.90
2018-06-04T11:19:32.055Z,99.90
2018-06-04T11:22:01.964Z,99.90
2018-06-04T11:24:30.972Z,99.90
2018-06-04T11:26:59.973Z,99.90
2018-06-04T11:29:29.104Z,99.90
2018-06-04T11:31:58.380Z,99.90
2018-06-04T11:34:28.218Z,99.90
2018-06-04T11:36:57.249Z,99.90
2018-06-04T11:39:26.295Z,99.90
2018-06-04T11:41:55.925Z,99.90
2018-06-04T11:44:24.887Z,99.90
2018-06-04T11:46:53.928Z,99.90
2018-06-04T11:49:22.923Z,99.80
2018-06-04T11:51:54.092Z,99.20
2018-06-04T11:54:23.858Z,99.90
2018-06-04T11:56:53.163Z,99.90
2018-06-04T11:59:22.175Z,99.70
2018-06-04T12:01:51.261Z,99.70
2018-06-04T12:04:20.354Z,99.90
2018-06-04T12:06:49.406Z,99.90
2018-06-04T12:09:18.407Z,99.90
2018-06-04T12:11:47.847Z,99.90
2018-06-04T12:14:16.925Z,99.90
2018-06-04T12:16:45.930Z,99.90
2018-06-04T12:19:15.099Z,99.90
2018-06-04T12:21:44.121Z,99.90
2018-06-04T12:24:13.143Z,99.90
2018-06-04T12:26:42.164Z,99.90
2018-06-04T12:29:11.846Z,99.90
2018-06-04T12:31:48.292Z,99.90
2018-06-04T12:34:17.249Z,99.90
2018-06-04T12:36:46.648Z,99.90
2018-06-04T12:39:18.499Z,99.90
2018-06-04T12:41:47.732Z,99.90
2018-06-04T12:44:16.764Z,99.90
2018-06-04T12:46:45.797Z,99.90
2018-06-04T12:49:14.804Z,99.90
2018-06-04T12:51:47.478Z,99.90
2018-06-04T12:54:16.485Z,99.90
2018-06-04T12:56:45.486Z,99.90
2018-06-04T12:59:14.448Z,99.90
2018-06-04T13:01:43.558Z,99.90
2018-06-04T13:04:12.576Z,99.90
2018-06-04T13:06:42.449Z,99.90
2018-06-04T13:09:13.140Z,99.90
2018-06-04T13:11:43.079Z,99.90
2018-06-04T13:14:12.123Z,99.90
2018-06-04T13:16:41.195Z,99.90
2018-06-04T13:19:10.282Z,99.90
2018-06-04T13:21:39.447Z,99.90
2018-06-04T13:24:08.791Z,99.90
2018-06-04T13:26:39.066Z,99.90
2018-06-04T13:29:08.196Z,99.90
2018-06-04T13:31:37.720Z,99.90
2018-06-04T13:34:06.940Z,99.90
2018-06-04T13:36:36.483Z,99.90
2018-06-04T13:39:08.324Z,99.90
2018-06-04T13:41:37.367Z,99.90
2018-06-04T13:44:06.382Z,99.90
2018-06-04T13:46:36.617Z,99.90
2018-06-04T13:49:08.527Z,99.90
2018-06-04T13:51:37.556Z,99.90
2018-06-04T13:54:06.689Z,99.90
2018-06-04T13:56:35.691Z,99.90
2018-06-04T13:59:05.132Z,99.90
2018-06-04T14:01:34.159Z,99.90
2018-06-04T14:04:03.156Z,99.90
2018-06-04T14:06:32.206Z,99.90
2018-06-04T14:09:01.241Z,99.90
2018-06-04T14:11:30.270Z,99.90
2018-06-04T14:13:59.279Z,99.90
2018-06-04T14:16:29.121Z,99.90
2018-06-04T14:18:58.144Z,99.90
2018-06-04T14:21:27.163Z,99.90
2018-06-04T14:23:56.203Z,99.70
2018-06-04T14:26:26.296Z,99.10
2018-06-04T14:28:55.490Z,99.50
2018-06-04T14:31:24.519Z,99.40
2018-06-04T14:33:54.466Z,98.60
2018-06-04T14:36:23.479Z,99.00
2018-06-04T14:38:53.390Z,99.40
2018-06-04T14:41:24.520Z,99.10
2018-06-04T14:43:54.364Z,98.80
2018-06-04T14:46:25.023Z,98.80
2018-06-04T14:48:54.100Z,99.00
2018-06-04T14:51:23.130Z,98.80
2018-06-04T14:56:21.791Z,99.40
2018-06-04T14:58:50.797Z,99.90
2018-06-04T15:01:19.906Z,99.90
2018-06-04T15:03:48.926Z,99.90
2018-06-04T15:06:17.965Z,99.90
2018-06-04T15:08:47.801Z,99.90
2018-06-04T15:11:16.897Z,99.90
2018-06-04T15:13:45.935Z,99.90
2018-06-04T15:16:15.236Z,99.90
2018-06-04T15:18:44.528Z,99.90
2018-06-04T15:21:15.572Z,99.90
2018-06-04T15:23:45.522Z,99.90
2018-06-04T15:26:14.569Z,99.90
2018-06-04T15:28:43.628Z,99.90
2018-06-04T15:31:12.648Z,99.90
2018-06-04T15:33:42.920Z,99.90
2018-06-04T15:36:11.950Z,99.90
2018-06-04T15:38:40.981Z,99.90
2018-06-04T15:41:10.777Z,99.90
2018-06-04T15:43:39.857Z,99.90
2018-06-04T15:46:08.841Z,99.90
2018-06-04T15:48:38.817Z,99.90
2018-06-04T15:51:08.075Z,99.90
2018-06-04T15:53:38.328Z,99.90
2018-06-04T15:56:07.351Z,99.90
2018-06-04T15:58:36.668Z,99.90
2018-06-04T16:01:05.750Z,99.90
2018-06-04T16:03:36.502Z,99.90
2018-06-04T16:06:09.188Z,99.90
2018-06-04T16:08:38.210Z,99.90
2018-06-04T16:11:07.236Z,99.90
2018-06-04T16:13:37.461Z,99.90
2018-06-04T16:16:07.409Z,99.90
2018-06-04T16:18:38.528Z,99.90
2018-06-04T16:21:07.523Z,99.90
2018-06-04T16:23:36.565Z,99.90
2018-06-04T16:26:06.018Z,99.90
2018-06-04T16:28:35.184Z,99.90
2018-06-04T16:31:04.349Z,99.90
2018-06-04T16:33:33.365Z,99.90
2018-06-04T16:36:02.494Z,99.90
2018-06-04T16:38:31.516Z,99.90
2018-06-04T16:41:00.604Z,99.90
2018-06-04T16:43:29.683Z,99.90
2018-06-04T16:45:59.998Z,99.90
2018-06-04T16:48:29.886Z,99.90
2018-06-04T16:51:00.082Z,99.90
2018-06-04T16:53:29.124Z,99.90
2018-06-04T16:55:58.281Z,99.90
2018-06-04T16:58:28.509Z,99.90
2018-06-04T17:00:57.542Z,99.90
2018-06-04T17:03:26.661Z,99.90
2018-06-04T17:05:56.181Z,99.90
2018-06-04T17:10:54.241Z,99.90
2018-06-04T17:13:23.312Z,99.90
2018-06-04T17:15:52.390Z,99.90
2018-06-04T17:18:21.606Z,99.90
2018-06-04T17:20:51.849Z,99.90
2018-06-04T17:23:22.122Z,99.90
2018-06-04T17:25:52.117Z,99.90
2018-06-04T17:28:21.162Z,99.90
2018-06-04T17:30:51.248Z,99.90
2018-06-04T17:33:20.402Z,99.90
2018-06-04T17:35:49.583Z,99.90
2018-06-04T17:38:19.643Z,99.90
2018-06-04T17:43:17.462Z,99.90
2018-06-04T17:45:46.679Z,99.90
2018-06-04T17:48:15.787Z,99.90
2018-06-04T17:50:45.121Z,99.90
2018-06-04T17:53:15.835Z,99.90
2018-06-04T17:55:45.020Z,99.90
2018-06-04T17:58:14.929Z,99.90
2018-06-04T18:00:44.037Z,99.90
2018-06-04T18:03:13.509Z,99.90
2018-06-04T18:05:43.043Z,99.90
2018-06-04T18:08:13.194Z,99.90
2018-06-04T18:10:42.352Z,99.90
2018-06-04T18:13:11.506Z,99.90
2018-06-04T18:15:40.997Z,99.90
2018-06-04T18:18:10.063Z,99.90
2018-06-04T18:20:39.123Z,99.90
2018-06-04T18:23:08.529Z,99.90
2018-06-04T18:25:38.065Z,99.90
2018-06-04T18:28:07.163Z,99.90
2018-06-04T18:30:36.366Z,99.90
2018-06-04T18:33:05.522Z,99.90
2018-06-04T18:35:35.292Z,99.90
2018-06-04T18:38:04.673Z,99.90
2018-06-04T18:40:33.738Z,99.90
2018-06-04T18:43:02.862Z,99.90
2018-06-04T18:45:32.542Z,99.90
2018-06-04T18:48:02.392Z,99.90
2018-06-04T18:50:32.045Z,99.90
2018-06-04T18:53:01.139Z,99.90
2018-06-04T18:55:30.185Z,99.90
2018-06-04T18:57:59.558Z,99.90
2018-06-04T19:00:28.698Z,99.90
2018-06-04T19:02:58.003Z,99.90
2018-06-04T19:05:27.168Z,99.90
2018-06-04T19:07:56.789Z,99.90
2018-06-04T19:10:26.252Z,99.90
2018-06-04T19:12:55.376Z,99.90
2018-06-04T19:15:24.474Z,99.90
2018-06-04T19:17:53.682Z,99.90
2018-06-04T19:20:22.774Z,99.90
2018-06-04T19:22:52.066Z,99.90
2018-06-04T19:25:21.285Z,99.90
2018-06-04T19:27:50.436Z,99.90
2018-06-04T19:30:19.601Z,99.90
2018-06-04T19:32:48.725Z,99.90
2018-06-04T19:35:17.794Z,99.90
2018-06-04T19:37:46.949Z,99.90
2018-06-04T19:40:16.087Z,99.90
2018-06-04T19:42:45.862Z,99.90
2018-06-04T19:45:14.990Z,99.90
2018-06-04T19:47:44.086Z,99.90
2018-06-04T19:50:13.353Z,99.90
2018-06-04T19:52:42.553Z,99.90
2018-06-04T19:55:11.638Z,99.90
2018-06-04T19:57:41.497Z,99.90
2018-06-04T20:02:39.490Z,99.90
2018-06-04T20:05:08.859Z,99.90
2018-06-04T20:07:38.230Z,99.90
2018-06-04T20:10:07.330Z,99.90
2018-06-04T20:12:37.305Z,99.90
2018-06-04T20:15:06.398Z,99.90
2018-06-04T20:17:42.185Z,99.90
2018-06-04T20:20:11.212Z,99.90
2018-06-04T20:22:40.401Z,99.90
2018-06-04T20:25:09.478Z,99.90
2018-06-04T20:27:39.498Z,99.90
2018-06-04T20:30:08.683Z,99.90
2018-06-04T20:32:38.214Z,99.90
2018-06-04T20:35:07.299Z,99.90
2018-06-04T20:37:37.375Z,99.90
2018-06-04T20:40:06.780Z,99.90
2018-06-04T20:42:35.875Z,99.90
2018-06-04T20:45:04.914Z,99.90
2018-06-04T20:47:33.981Z,99.90
2018-06-04T20:50:03.114Z,99.90
2018-06-04T20:52:32.170Z,99.90
2018-06-04T20:55:01.206Z,99.90
2018-06-04T20:57:30.242Z,99.90
2018-06-04T20:59:59.291Z,99.90
2018-06-04T21:02:28.359Z,99.90
2018-06-04T21:04:58.928Z,99.90
2018-06-04T21:09:56.835Z,99.90
2018-06-04T21:12:25.900Z,99.90
2018-06-04T21:14:54.907Z,99.90
2018-06-04T21:17:23.974Z,99.90
2018-06-04T21:19:52.981Z,99.90
2018-06-04T21:22:22.035Z,99.90
2018-06-04T21:24:51.069Z,99.90
2018-06-04T21:27:21.040Z,99.90
2018-06-04T21:29:50.187Z,99.90
2018-06-04T21:32:19.970Z,99.90
2018-06-04T21:34:49.660Z,99.90
2018-06-04T21:37:19.185Z,99.90
2018-06-04T21:39:48.229Z,99.90
2018-06-04T21:42:18.469Z,99.90
2018-06-04T21:44:47.490Z,99.90
2018-06-04T21:47:16.497Z,99.90
2018-06-04T21:49:45.512Z,99.90
2018-06-04T21:52:14.506Z,99.90
2018-06-04T21:54:44.673Z,99.90
2018-06-04T21:57:13.728Z,99.90
2018-06-04T21:59:42.743Z,99.90
2018-06-04T22:02:12.996Z,99.90
2018-06-04T22:04:44.707Z,99.90
2018-06-04T22:07:14.477Z,99.90
2018-06-04T22:09:47.497Z,99.90
2018-06-04T22:12:17.373Z,99.90
2018-06-04T22:14:48.463Z,99.90
2018-06-04T22:17:17.583Z,99.90
2018-06-04T22:19:46.653Z,99.90
2018-06-04T22:22:17.863Z,99.90
2018-06-04T22:24:46.911Z,99.90
2018-06-04T22:27:15.928Z,99.90
2018-06-04T22:29:45.248Z,99.90
2018-06-04T22:32:14.243Z,99.90
2018-06-04T22:34:44.410Z,99.90
2018-06-04T22:37:13.420Z,99.90
2018-06-04T22:39:42.548Z,99.90
2018-06-04T22:42:11.548Z,99.90
2018-06-04T22:44:43.205Z,99.90
2018-06-04T22:47:12.349Z,99.90
2018-06-04T22:49:41.700Z,99.90
2018-06-04T22:52:11.510Z,99.90
2018-06-04T22:54:41.889Z,99.90
2018-06-04T22:57:10.904Z,99.90
2018-06-04T22:59:40.795Z,99.90
2018-06-04T23:02:09.810Z,99.90
2018-06-04T23:04:41.710Z,99.90
2018-06-04T23:07:10.775Z,99.90
2018-06-04T23:09:39.784Z,99.90
2018-06-04T23:12:08.776Z,99.90
2018-06-04T23:14:37.768Z,99.90
2018-06-04T23:17:07.668Z,99.90
2018-06-04T23:19:36.704Z,99.90
2018-06-04T23:22:05.682Z,99.90
2018-06-04T23:24:35.563Z,99.90
2018-06-04T23:27:05.325Z,99.90
2018-06-04T23:29:35.543Z,99.90
2018-06-04T23:34:34.446Z,99.90
2018-06-04T23:37:03.475Z,99.90
2018-06-04T23:39:32.539Z,99.90
2018-06-04T23:42:09.337Z,99.90
2018-06-04T23:44:58.330Z,99.90
2018-06-04T23:47:28.125Z,99.90
2018-06-04T23:49:57.168Z,99.90
2018-06-04T23:54:55.067Z,99.90
2018-06-04T23:57:24.112Z,99.90
2018-06-04T23:59:53.460Z,99.90
